• Join FlightAware (Why Join?)
  • Login
  • US Flag 
05:13AM EDT


 

Airport Tracker/Info


-or-


 

Live Flight TrackerFlight Track Log ✈ SIL3622 ✈ 23-Apr-2013 ✈ KTUP - KATL

Flight Track Log - Related Links

Times and Time Zones

All times are in EDT time to prevent confusion due to time zone crossing. See the SIL3622 flight status page for this flight to view local times or setup timezone preferences in your user account.

Time Position Orientation Groundspeed Altitude Reporting Facility
EDT Latitude Longitude Course Direction KTS MPH feet Rate Location/Type
06:18PM 34.3033 -88.8536 297° West 257 296 5,300  Level Memphis Center
06:19PM 34.3414 -88.8906 321° Northwest 214 246 7,400 1,800 Climbing Memphis Center
06:20PM 34.3681 -88.8500 51° Northeast 118 136 8,900 1,500 Climbing Memphis Center
06:21PM 34.3589 -88.7822 99° East 123 142 10,400 1,440 Climbing Memphis Center
06:22PM 34.3475 -88.7169 102° East 157 181 11,800 1,320 Climbing Memphis Center
06:23PM 34.3383 -88.6467 99° East 192 221 13,100 1,320 Climbing Memphis Center
06:24PM 34.3269 -88.5817 102° East 199 229 14,500 1,200 Climbing Memphis Center
06:25PM 34.3156 -88.5139 101° East 199 229 15,600 1,140 Climbing Memphis Center
06:26PM 34.3019 -88.4436 103° East 199 229 16,800 660 Climbing Memphis Center
06:27PM 34.2842 -88.3711 107° East 204 235 17,000 60 Climbing Memphis Center
06:28PM 34.2597 -88.2864 109° East 234 269 17,000  Level Memphis Center
06:29PM 34.2331 -88.1967 110° East 262 302 17,000  Level Memphis Center
06:30PM 34.2025 -88.1094 113° Southeast 277 319 17,000  Level Memphis Center
06:31PM 34.1736 -88.0147 110° East 289 333 17,000  Level Memphis Center
06:33PM 34.1208 -87.8678 113° Southeast 300 345 17,000  Level Atlanta Center
06:34PM 34.0881 -87.7786 114° Southeast 300 345 17,000  Level Atlanta Center
06:35PM 34.0528 -87.7019 119° Southeast 295 339 17,000  Level Atlanta Center
06:36PM 34.0114 -87.6172 120° Southeast 295 339 17,000  Level Atlanta Center
06:37PM 33.9722 -87.5306 119° Southeast 295 339 17,000  Level Atlanta Center
06:38PM 33.9308 -87.4436 120° Southeast 300 345 17,000  Level Atlanta Center
06:39PM 33.8914 -87.3597 120° Southeast 300 345 17,000  Level Atlanta Center
06:40PM 33.8708 -87.2661 105° East 295 339 17,000  Level Atlanta Center
06:41PM 33.8756 -87.1689 87° East 279 321 17,000  Level Atlanta Center
06:42PM 33.8800 -87.0689 87° East 284 327 17,000  Level Atlanta Center
06:43PM 33.8806 -86.9689 90° East 290 334 17,000  Level Atlanta Center
06:44PM 33.8869 -86.8739 85° East 290 334 17,000  Level Atlanta Center
06:45PM 33.8953 -86.7767 84° East 290 334 17,000 -300 Level Atlanta Center
06:46PM 33.9036 -86.6794 84° East 290 334 16,500 -960 Descending Atlanta Center
06:47PM 33.9142 -86.5744 83° East 296 341 15,100 -1,380 Descending Atlanta Center
06:48PM 33.9225 -86.4747 84° East 302 348 13,800 -1,380 Descending Atlanta Center
06:49PM 33.9392 -86.3725 79° East 302 348 12,400 -1,380 Descending Atlanta Center
06:50PM 33.9578 -86.2703 78° East 307 353 11,100 -780 Descending Atlanta Center
06:51PM 33.9678 -86.1753 83° East 302 348 10,900 -120 Descending Atlanta Center
06:52PM 33.9778 -86.0781 83° East 291 335 10,900  Level Atlanta Center
06:53PM 33.9833 -85.9828 86° East 291 335 10,900  Level Atlanta Center
06:54PM 33.9892 -85.8878 86° East 291 335 10,900  Level Atlanta Center
06:55PM 33.9947 -85.7903 86° East 283 326 11,000  Climbing Atlanta Center
06:56PM 34.0003 -85.6900 86° East 283 326 11,000 -60 Level Atlanta Center
06:57PM 34.0036 -85.5950 88° East 283 326 10,900 -300 Descending Atlanta Center
06:58PM 34.0069 -85.4972 88° East 288 331 10,400 -600 Descending Atlanta Center
06:59PM 34.0039 -85.3969 92° East 288 331 9,700 -660 Descending Atlanta Center
07:00PM 33.9986 -85.3117 94° East 288 331 9,100 -360 Descending Atlanta Center
07:01PM 33.9931 -85.2214 94° East 283 326 9,000 -60 Descending Atlanta Center
07:02PM 33.9919 -85.1286 91° East 273 314 9,000  Level Atlanta Center
07:03PM 33.9844 -85.0333 95° East 273 314 9,000  Level Atlanta Center
07:04PM 33.9558 -84.9503 113° Southeast 267 307 9,000  Level Atlanta Center
07:05PM 33.9019 -84.8847 135° Southeast 272 313 9,000  Level Atlanta Center
07:06PM 33.8500 -84.8667 164° South 272 313 9,000 -180 Level Atlanta TRACON
07:07PM 33.7833 -84.8500 168° South 269 310 8,800 -540 Descending Atlanta TRACON
07:07PM 33.7167 -84.8500 180° South 269 310 8,000 -540 Descending Atlanta TRACON
07:08PM 33.6500 -84.8333 168° South 211 243 7,800 -660 Descending Atlanta TRACON
07:09PM 33.6333 -84.7667 107° East 219 252 6,800 -1,140 Descending Atlanta TRACON
07:10PM 33.6333 -84.7000 90° East 188 216 5,700 -1,200 Descending Atlanta TRACON
07:11PM 33.6333 -84.6333 90° East 181 208 4,400 -1,200 Descending Atlanta TRACON
07:12PM 33.6333 -84.5833 90° East 181 208 3,200 -1,080 Descending Atlanta TRACON
07:13PM 33.6333 -84.5167 90° East 160 184 2,300 -840 Descending Atlanta TRACON
07:14PM 33.6333 -84.4833 90° East 130 150 1,600 -720 Descending Atlanta TRACON
07:16PM 33.6367 -84.4279 121° Southeast  Level Estimated
07:23PM 33.6367 -84.4279 121° Southeast  Level Estimated
07:24PM 33.6367 -84.4279 121° Southeast  Level Estimated